createdAt,value
2022-08-23T00:02:29.416Z,2.03
2022-08-23T00:05:09.158Z,2.30
2022-08-23T00:07:39.924Z,1.75
2022-08-23T00:10:11.225Z,2.20
2022-08-23T00:12:40.360Z,2.10
2022-08-23T00:15:13.197Z,2.22
2022-08-23T00:17:43.967Z,2.10
2022-08-23T00:20:18.548Z,2.25
2022-08-23T00:22:47.944Z,1.98
2022-08-23T00:25:17.136Z,2.00
2022-08-23T00:27:46.175Z,1.95
2022-08-23T00:30:17.276Z,1.77
2022-08-23T00:32:48.012Z,2.10
2022-08-23T00:35:26.574Z,1.90
2022-08-23T00:38:14.624Z,1.90
2022-08-23T00:40:47.359Z,1.88
2022-08-23T00:43:35.932Z,2.08
2022-08-23T00:46:32.606Z,1.85
2022-08-23T00:49:08.821Z,1.95
2022-08-23T00:51:52.684Z,1.70
2022-08-23T00:54:24.117Z,1.90
2022-08-23T00:56:53.279Z,2.20
2022-08-23T00:59:21.774Z,2.20
2022-08-23T01:02:00.029Z,2.13
2022-08-23T01:04:45.130Z,2.10
2022-08-23T01:07:20.959Z,2.40
2022-08-23T01:09:53.433Z,2.30
2022-08-23T01:12:32.321Z,2.28
2022-08-23T01:15:07.265Z,2.00
2022-08-23T01:17:42.498Z,2.63
2022-08-23T01:20:17.406Z,2.55
2022-08-23T01:22:53.183Z,2.30
2022-08-23T01:25:27.635Z,2.55
2022-08-23T01:27:56.155Z,2.42
2022-08-23T01:30:27.444Z,2.63
2022-08-23T01:32:58.543Z,2.63
2022-08-23T01:35:41.514Z,2.80
2022-08-23T01:38:11.284Z,2.58
2022-08-23T01:40:42.331Z,2.95
2022-08-23T01:43:13.243Z,2.67
2022-08-23T01:45:42.989Z,2.67
2022-08-23T01:48:11.565Z,2.70
2022-08-23T01:50:40.370Z,2.60
2022-08-23T01:53:10.678Z,2.65
2022-08-23T01:55:42.338Z,2.70
2022-08-23T01:58:11.672Z,2.88
2022-08-23T02:00:42.424Z,2.80
2022-08-23T02:03:12.889Z,3.00
2022-08-23T02:05:42.887Z,2.70
2022-08-23T02:08:29.077Z,3.03
2022-08-23T02:11:00.537Z,3.15
2022-08-23T02:13:29.840Z,3.97
2022-08-23T02:15:58.639Z,3.85
2022-08-23T02:18:28.133Z,3.95
2022-08-23T02:20:56.915Z,4.30
2022-08-23T02:23:25.981Z,4.38
2022-08-23T02:25:55.565Z,4.72
2022-08-23T02:28:26.684Z,4.82
2022-08-23T02:30:55.508Z,4.43
2022-08-23T02:33:24.337Z,5.10
2022-08-23T02:35:53.686Z,4.80
2022-08-23T02:38:22.169Z,4.72
2022-08-23T02:40:53.059Z,4.07
2022-08-23T02:43:31.516Z,4.28
2022-08-23T02:46:07.841Z,4.03
2022-08-23T02:48:36.881Z,4.43
2022-08-23T02:51:10.574Z,4.32
2022-08-23T02:53:41.104Z,4.65
2022-08-23T02:56:21.160Z,4.45
2022-08-23T02:58:54.222Z,4.28
2022-08-23T03:01:28.886Z,4.72
2022-08-23T03:03:59.318Z,4.30
2022-08-23T03:06:29.064Z,4.47
2022-08-23T03:08:58.477Z,4.55
2022-08-23T03:11:27.733Z,4.90
2022-08-23T03:14:01.599Z,4.60
2022-08-23T03:16:31.303Z,4.53
2022-08-23T03:19:02.612Z,4.60
2022-08-23T03:21:31.495Z,4.43
2022-08-23T03:24:01.141Z,5.45
2022-08-23T03:26:29.705Z,4.63
2022-08-23T03:28:58.771Z,4.45
2022-08-23T03:31:31.304Z,4.53
2022-08-23T03:34:00.708Z,4.65
2022-08-23T03:36:29.760Z,4.75
2022-08-23T03:38:58.790Z,5.10
2022-08-23T03:41:30.765Z,5.13
2022-08-23T03:43:59.424Z,4.70
2022-08-23T03:46:33.763Z,5.25
2022-08-23T03:49:04.116Z,4.72
2022-08-23T03:51:34.645Z,5.55
2022-08-23T03:54:03.828Z,4.90
2022-08-23T03:56:36.165Z,5.00
2022-08-23T03:59:07.513Z,4.68
2022-08-23T04:01:37.398Z,5.07
2022-08-23T04:04:06.938Z,5.47
2022-08-23T04:06:35.682Z,5.53
2022-08-23T04:09:04.552Z,4.90
2022-08-23T04:11:33.189Z,5.10
2022-08-23T04:14:02.692Z,5.18
2022-08-23T04:16:37.622Z,4.78
2022-08-23T04:19:08.737Z,4.90
2022-08-23T04:21:39.037Z,4.82
2022-08-23T04:24:07.738Z,4.97
2022-08-23T04:26:36.437Z,4.40
2022-08-23T04:29:05.802Z,4.57
2022-08-23T04:31:37.147Z,4.32
2022-08-23T04:34:09.433Z,4.53
2022-08-23T04:36:41.710Z,4.68
2022-08-23T04:39:17.818Z,4.57
2022-08-23T04:42:05.434Z,4.45
2022-08-23T04:44:34.080Z,4.30
2022-08-23T04:47:02.669Z,4.40
2022-08-23T04:49:33.894Z,4.15
2022-08-23T04:52:03.812Z,3.95
2022-08-23T04:54:32.420Z,3.85
2022-08-23T04:57:00.800Z,4.20
2022-08-23T04:59:29.359Z,4.03
2022-08-23T05:01:58.400Z,3.92
2022-08-23T05:04:27.405Z,3.80
2022-08-23T05:06:57.900Z,3.88
2022-08-23T05:09:27.362Z,3.67
2022-08-23T05:11:56.662Z,3.50
2022-08-23T05:14:25.398Z,3.20
2022-08-23T05:16:53.996Z,3.40
2022-08-23T05:19:22.673Z,3.70
2022-08-23T05:21:53.940Z,3.58
2022-08-23T05:24:26.717Z,3.20
2022-08-23T05:26:55.082Z,2.88
2022-08-23T05:29:23.446Z,2.80
2022-08-23T05:31:52.102Z,2.88
2022-08-23T05:34:22.776Z,2.60
2022-08-23T05:36:55.595Z,2.70
2022-08-23T05:39:32.973Z,2.67
2022-08-23T05:42:08.460Z,2.22
2022-08-23T05:44:37.411Z,2.25
2022-08-23T05:47:10.804Z,2.63
2022-08-23T05:49:40.530Z,2.20
2022-08-23T05:52:13.308Z,2.30
2022-08-23T05:54:42.271Z,2.13
2022-08-23T05:57:12.744Z,2.03
2022-08-23T05:59:44.355Z,2.35
2022-08-23T06:02:12.830Z,2.17
2022-08-23T06:04:41.580Z,2.25
2022-08-23T06:07:11.715Z,2.10
2022-08-23T06:09:40.550Z,2.28
2022-08-23T06:12:09.836Z,1.90
2022-08-23T06:14:40.276Z,2.25
2022-08-23T06:17:09.045Z,1.90
2022-08-23T06:19:37.427Z,2.10
2022-08-23T06:22:05.821Z,1.90
2022-08-23T06:24:34.495Z,2.15
2022-08-23T06:27:03.529Z,1.90
2022-08-23T06:29:32.116Z,1.85
2022-08-23T06:32:02.804Z,2.05
2022-08-23T06:34:33.753Z,1.90
2022-08-23T06:37:05.100Z,1.98
2022-08-23T06:39:37.550Z,2.90
2022-08-23T06:42:34.440Z,2.05
2022-08-23T06:44:57.900Z,1.83
2022-08-23T06:47:29.227Z,1.77
2022-08-23T06:49:58.784Z,1.70
2022-08-23T06:52:28.998Z,1.60
2022-08-23T06:54:57.951Z,1.80
2022-08-23T06:57:27.617Z,1.73
2022-08-23T06:59:56.065Z,1.80
2022-08-23T07:02:24.662Z,1.70
2022-08-23T07:04:56.178Z,1.70
2022-08-23T07:07:24.794Z,1.52
2022-08-23T07:10:11.330Z,1.60
2022-08-23T07:12:42.698Z,1.58
2022-08-23T07:15:14.013Z,1.58
2022-08-23T07:17:42.539Z,1.33
2022-08-23T07:20:13.409Z,1.50
2022-08-23T07:22:41.925Z,1.50
2022-08-23T07:25:10.742Z,1.70
2022-08-23T07:27:39.523Z,1.50
2022-08-23T07:30:09.735Z,1.40
2022-08-23T07:32:38.395Z,1.70
2022-08-23T07:35:07.949Z,1.40
2022-08-23T07:37:37.969Z,1.63
2022-08-23T07:40:08.935Z,1.30
2022-08-23T07:42:37.890Z,1.50
2022-08-23T07:45:10.038Z,1.60
2022-08-23T07:47:39.014Z,1.63
2022-08-23T07:50:10.142Z,1.58
2022-08-23T07:52:40.748Z,1.38
2022-08-23T07:55:10.301Z,1.75
2022-08-23T07:57:39.109Z,1.38
2022-08-23T08:00:09.627Z,1.48
2022-08-23T08:02:38.405Z,1.45
2022-08-23T08:05:08.828Z,1.73
2022-08-23T08:07:39.367Z,1.55
2022-08-23T08:10:09.276Z,1.30
2022-08-23T08:12:37.701Z,1.02
2022-08-23T08:15:07.336Z,1.20
2022-08-23T08:17:36.815Z,1.35
2022-08-23T08:20:06.320Z,1.65
2022-08-23T08:22:34.579Z,1.73
2022-08-23T08:25:04.934Z,1.50
2022-08-23T08:27:34.013Z,1.48
2022-08-23T08:30:04.405Z,1.60
2022-08-23T08:32:33.437Z,1.63
2022-08-23T08:35:03.415Z,1.48
2022-08-23T08:37:32.432Z,1.50
2022-08-23T08:40:03.887Z,1.67
2022-08-23T08:42:46.122Z,1.55
2022-08-23T08:45:21.909Z,1.50
2022-08-23T08:47:54.797Z,1.60
2022-08-23T08:50:30.149Z,1.42
2022-08-23T08:53:04.065Z,1.42
2022-08-23T08:55:39.525Z,1.40
2022-08-23T08:58:17.801Z,1.20
2022-08-23T09:00:50.676Z,1.00
2022-08-23T09:03:22.859Z,1.20
2022-08-23T09:06:03.293Z,1.10
2022-08-23T09:08:51.156Z,1.10
2022-08-23T09:11:35.422Z,1.00
2022-08-23T09:14:31.759Z,1.00
2022-08-23T09:17:05.674Z,0.80
2022-08-23T09:19:38.748Z,1.00
2022-08-23T09:22:13.794Z,0.80
2022-08-23T09:24:42.939Z,1.10
2022-08-23T09:27:13.450Z,1.00
2022-08-23T09:29:57.472Z,1.10
2022-08-23T09:32:34.277Z,0.70
2022-08-23T09:35:10.224Z,0.90
2022-08-23T09:37:53.268Z,0.90
2022-08-23T09:40:32.280Z,0.90
2022-08-23T09:43:14.574Z,0.80
2022-08-23T09:45:54.722Z,0.80
2022-08-23T09:48:36.619Z,0.60
2022-08-23T09:51:14.368Z,0.70
2022-08-23T09:53:49.956Z,0.90
2022-08-23T09:56:26.326Z,0.90
2022-08-23T09:58:57.139Z,0.60
2022-08-23T10:01:27.996Z,0.65
2022-08-23T10:04:12.401Z,0.70
2022-08-23T10:06:43.503Z,0.70
2022-08-23T10:09:26.014Z,0.60
2022-08-23T10:11:55.299Z,0.70
2022-08-23T10:14:30.744Z,0.70
2022-08-23T10:17:11.491Z,0.60
2022-08-23T10:19:48.605Z,0.60
2022-08-23T10:22:21.921Z,0.60
2022-08-23T10:25:01.031Z,0.70
2022-08-23T10:27:53.326Z,0.60
2022-08-23T10:30:28.579Z,0.75
2022-08-23T10:33:08.286Z,0.60
2022-08-23T10:35:45.215Z,0.55
2022-08-23T10:38:29.720Z,0.88
2022-08-23T10:41:04.963Z,0.70
2022-08-23T10:43:41.021Z,0.60
2022-08-23T10:46:12.257Z,0.60
2022-08-23T10:48:50.376Z,0.68
2022-08-23T10:51:31.928Z,0.63
2022-08-23T10:54:08.098Z,1.10
2022-08-23T10:56:44.334Z,8.10
2022-08-23T10:59:24.227Z,18.88
2022-08-23T11:02:01.623Z,0.50
2022-08-23T11:04:37.189Z,0.60
2022-08-23T11:07:18.254Z,0.73
2022-08-23T11:09:55.089Z,0.50
2022-08-23T11:12:30.264Z,0.60
2022-08-23T11:15:12.501Z,2.25
2022-08-23T11:17:58.185Z,0.55
2022-08-23T11:21:06.385Z,0.80
2022-08-23T11:23:45.320Z,0.70
2022-08-23T11:26:48.948Z,0.70
2022-08-23T11:29:33.220Z,0.68
2022-08-23T11:32:19.675Z,0.73
2022-08-23T11:35:00.215Z,0.50
2022-08-23T11:37:49.581Z,0.68
2022-08-23T11:40:39.668Z,0.50
2022-08-23T11:43:13.749Z,0.60
2022-08-23T11:45:47.511Z,0.60
2022-08-23T11:48:20.558Z,0.50
2022-08-23T11:51:11.309Z,0.50
2022-08-23T11:53:58.493Z,0.50
2022-08-23T11:56:46.317Z,0.50
2022-08-23T11:59:38.448Z,0.60
2022-08-23T12:02:37.279Z,0.55
2022-08-23T12:05:21.290Z,0.40
2022-08-23T12:07:56.041Z,0.40
2022-08-23T12:10:46.769Z,0.52
2022-08-23T12:13:31.943Z,0.52
2022-08-23T12:16:17.038Z,0.60
2022-08-23T12:18:54.774Z,0.60
2022-08-23T12:21:29.051Z,0.55
2022-08-23T12:24:02.926Z,0.70
2022-08-23T12:26:45.668Z,0.60
2022-08-23T12:29:25.672Z,0.68
2022-08-23T12:32:01.043Z,0.60
2022-08-23T12:34:35.382Z,0.55
2022-08-23T12:37:16.261Z,0.50
2022-08-23T12:39:52.652Z,0.60
2022-08-23T12:42:27.732Z,0.60
2022-08-23T12:45:07.204Z,0.50
2022-08-23T12:47:40.982Z,0.70
2022-08-23T12:50:32.469Z,0.60
2022-08-23T12:53:06.258Z,0.70
2022-08-23T12:55:38.925Z,0.68
2022-08-23T12:58:09.289Z,0.60
2022-08-23T13:00:43.754Z,0.73
2022-08-23T13:03:19.095Z,0.70
2022-08-23T13:05:52.757Z,0.80
2022-08-23T13:08:34.134Z,0.70
2022-08-23T13:11:08.458Z,0.70
2022-08-23T13:13:40.205Z,0.77
2022-08-23T13:16:29.710Z,0.70
2022-08-23T13:19:16.702Z,0.70
2022-08-23T13:21:45.980Z,1.00
2022-08-23T13:24:38.741Z,0.90
2022-08-23T13:27:23.125Z,0.93
2022-08-23T13:29:55.187Z,0.88
2022-08-23T13:32:43.644Z,0.90
2022-08-23T13:35:40.515Z,0.80
2022-08-23T13:38:21.720Z,0.98
2022-08-23T13:41:05.648Z,0.90
2022-08-23T13:43:40.969Z,0.80
2022-08-23T13:46:21.732Z,0.98
2022-08-23T13:48:58.655Z,0.90
2022-08-23T13:51:31.967Z,0.70
2022-08-23T13:54:02.976Z,0.70
2022-08-23T13:56:32.492Z,1.20
2022-08-23T13:59:06.791Z,1.10
2022-08-23T14:01:36.148Z,1.30
2022-08-23T14:04:05.143Z,1.10
2022-08-23T14:06:33.580Z,0.93
2022-08-23T14:09:02.045Z,0.88
2022-08-23T14:11:30.788Z,1.38
2022-08-23T14:13:59.188Z,0.90
2022-08-23T14:16:33.164Z,0.80
2022-08-23T14:19:55.124Z,0.88
2022-08-23T14:21:53.793Z,0.95
2022-08-23T14:24:23.224Z,0.90
2022-08-23T14:26:52.671Z,0.93
2022-08-23T14:29:22.872Z,1.20
2022-08-23T14:31:53.620Z,1.00
2022-08-23T14:34:22.775Z,0.90
2022-08-23T14:39:42.404Z,1.00
2022-08-23T14:42:13.606Z,0.77
2022-08-23T14:44:43.110Z,1.00
2022-08-23T14:47:13.045Z,1.00
2022-08-23T14:49:42.086Z,1.08
2022-08-23T14:52:12.238Z,1.08
2022-08-23T14:54:41.468Z,0.75
2022-08-23T14:57:10.545Z,0.80
2022-08-23T14:59:39.003Z,0.90
2022-08-23T15:02:12.257Z,1.00
2022-08-23T15:04:42.512Z,0.90
2022-08-23T15:07:18.263Z,0.90
2022-08-23T15:09:47.504Z,0.70
2022-08-23T15:15:06.682Z,0.80
2022-08-23T15:17:38.903Z,0.90
2022-08-23T15:20:09.643Z,1.00
2022-08-23T15:22:44.277Z,0.85
2022-08-23T15:25:13.500Z,1.00
2022-08-23T15:27:42.753Z,0.80
2022-08-23T15:30:13.938Z,0.90
2022-08-23T15:32:52.137Z,0.93
2022-08-23T15:35:25.689Z,0.82
2022-08-23T15:37:56.385Z,0.90
2022-08-23T15:40:26.516Z,0.80
2022-08-23T15:42:55.146Z,1.00
2022-08-23T15:45:23.765Z,0.70
2022-08-23T15:47:54.504Z,0.80
2022-08-23T15:50:27.686Z,0.90
2022-08-23T15:52:56.779Z,0.75
2022-08-23T15:55:29.591Z,0.82
2022-08-23T15:57:58.879Z,1.10
2022-08-23T16:00:28.499Z,0.73
2022-08-23T16:03:20.656Z,1.00
2022-08-23T16:05:49.938Z,0.90
2022-08-23T16:08:23.098Z,0.90
2022-08-23T16:10:52.468Z,0.73
2022-08-23T16:13:21.437Z,0.90
2022-08-23T16:15:50.228Z,1.00
2022-08-23T16:18:19.151Z,0.90
2022-08-23T16:20:49.005Z,0.60
2022-08-23T16:23:23.323Z,0.80
2022-08-23T16:25:54.417Z,0.73
2022-08-23T16:28:24.271Z,0.82
2022-08-23T16:30:52.911Z,0.90
2022-08-23T16:33:21.509Z,0.80
2022-08-23T16:35:51.728Z,0.90
2022-08-23T16:38:21.243Z,0.88
2022-08-23T16:40:50.162Z,0.93
2022-08-23T16:43:18.829Z,1.00
2022-08-23T16:45:47.474Z,0.57
2022-08-23T16:48:16.283Z,0.90
2022-08-23T16:50:45.040Z,0.57
2022-08-23T16:53:15.757Z,1.00
2022-08-23T16:55:45.709Z,1.00
2022-08-23T16:58:14.286Z,0.93
2022-08-23T17:00:42.762Z,1.23
2022-08-23T17:03:11.519Z,1.10
2022-08-23T17:05:39.901Z,1.08
2022-08-23T17:08:08.673Z,1.17
2022-08-23T17:10:39.204Z,0.90
2022-08-23T17:13:11.053Z,0.75
2022-08-23T17:15:40.177Z,0.85
2022-08-23T17:18:09.409Z,1.10
2022-08-23T17:20:41.319Z,1.00
2022-08-23T17:23:12.406Z,0.80
2022-08-23T17:25:47.750Z,0.85
2022-08-23T17:28:17.826Z,0.90
2022-08-23T17:30:46.239Z,1.10
2022-08-23T17:33:15.370Z,0.73
2022-08-23T17:35:45.935Z,0.70
2022-08-23T17:38:15.717Z,0.80
2022-08-23T17:40:45.963Z,1.00
2022-08-23T17:43:14.454Z,0.70
2022-08-23T17:45:52.430Z,0.90
2022-08-23T17:48:23.024Z,0.70
2022-08-23T17:50:51.455Z,2.00
2022-08-23T17:53:20.458Z,1.23
2022-08-23T17:55:50.504Z,1.40
2022-08-23T17:58:20.669Z,0.80
2022-08-23T18:00:49.218Z,0.80
2022-08-23T18:03:17.718Z,0.80
2022-08-23T18:05:46.538Z,0.82
2022-08-23T18:08:16.840Z,0.90
2022-08-23T18:10:45.347Z,0.85
2022-08-23T18:13:15.412Z,0.90
2022-08-23T18:15:43.916Z,0.85
2022-08-23T18:18:12.263Z,0.77
2022-08-23T18:20:40.852Z,1.02
2022-08-23T18:23:09.451Z,0.70
2022-08-23T18:25:38.321Z,0.80
2022-08-23T18:28:09.701Z,0.80
2022-08-23T18:30:47.052Z,0.80
2022-08-23T18:33:16.795Z,0.70
2022-08-23T18:35:48.412Z,0.98
2022-08-23T18:38:18.021Z,1.20
2022-08-23T18:40:48.975Z,0.80
2022-08-23T18:43:19.826Z,0.88
2022-08-23T18:45:53.118Z,0.70
2022-08-23T18:48:23.874Z,0.80
2022-08-23T18:50:53.325Z,0.70
2022-08-23T18:53:22.722Z,0.90
2022-08-23T18:55:52.643Z,0.85
2022-08-23T18:58:22.902Z,0.80
2022-08-23T19:00:54.500Z,1.15
2022-08-23T19:03:23.388Z,0.90
2022-08-23T19:05:52.336Z,0.80
2022-08-23T19:08:20.881Z,0.73
2022-08-23T19:10:49.756Z,0.80
2022-08-23T19:13:18.389Z,0.88
2022-08-23T19:15:47.178Z,0.80
2022-08-23T19:18:17.337Z,0.80
2022-08-23T19:20:46.265Z,0.90
2022-08-23T19:23:15.942Z,1.48
2022-08-23T19:25:45.577Z,0.73
2022-08-23T19:28:14.914Z,0.85
2022-08-23T19:30:44.967Z,0.80
2022-08-23T19:33:15.166Z,1.05
2022-08-23T19:35:46.179Z,1.33
2022-08-23T19:38:14.814Z,1.05
2022-08-23T19:41:05.479Z,1.00
2022-08-23T19:43:35.669Z,1.05
2022-08-23T19:46:08.497Z,1.15
2022-08-23T19:48:37.929Z,1.00
2022-08-23T19:51:10.557Z,1.13
2022-08-23T19:53:40.339Z,1.02
2022-08-23T19:56:09.178Z,1.08
2022-08-23T19:58:40.038Z,1.00
2022-08-23T20:01:08.608Z,1.27
2022-08-23T20:03:37.424Z,1.20
2022-08-23T20:06:08.360Z,1.10
2022-08-23T20:08:38.153Z,1.10
2022-08-23T20:11:08.326Z,1.05
2022-08-23T20:13:36.928Z,1.33
2022-08-23T20:16:05.643Z,1.40
2022-08-23T20:18:34.336Z,1.58
2022-08-23T20:21:02.988Z,1.77
2022-08-23T20:23:50.349Z,1.67
2022-08-23T20:26:18.643Z,2.20
2022-08-23T20:28:50.452Z,2.00
2022-08-23T20:31:32.301Z,1.50
2022-08-23T20:34:01.504Z,1.42
2022-08-23T20:36:30.448Z,1.30
2022-08-23T20:39:01.808Z,1.50
2022-08-23T20:41:32.734Z,1.90
2022-08-23T20:44:05.744Z,2.90
2022-08-23T20:46:37.193Z,3.65
2022-08-23T20:49:07.012Z,4.03
2022-08-23T20:51:41.719Z,3.20
2022-08-23T20:54:14.045Z,2.25
2022-08-23T20:56:42.860Z,2.50
2022-08-23T20:59:13.054Z,1.77
2022-08-23T21:01:42.775Z,2.28
2022-08-23T21:04:12.891Z,1.60
2022-08-23T21:06:45.110Z,1.35
2022-08-23T21:09:20.761Z,1.27
2022-08-23T21:11:54.064Z,1.30
2022-08-23T21:14:23.266Z,1.05
2022-08-23T21:16:57.796Z,1.00
2022-08-23T21:19:30.759Z,1.15
2022-08-23T21:22:00.135Z,1.13
2022-08-23T21:24:30.399Z,1.20
2022-08-23T21:27:00.520Z,1.20
2022-08-23T21:29:30.974Z,1.40
2022-08-23T21:31:59.304Z,1.42
2022-08-23T21:34:28.120Z,1.63
2022-08-23T21:37:01.388Z,1.40
2022-08-23T21:39:31.197Z,1.40
2022-08-23T21:42:02.956Z,1.10
2022-08-23T21:44:44.008Z,1.30
2022-08-23T21:47:15.611Z,1.10
2022-08-23T21:49:45.810Z,1.27
2022-08-23T21:52:15.701Z,1.02
2022-08-23T21:54:53.545Z,1.33
2022-08-23T21:57:26.487Z,1.10
2022-08-23T21:59:55.368Z,1.10
2022-08-23T22:02:25.138Z,1.00
2022-08-23T22:04:54.024Z,1.10
2022-08-23T22:07:24.409Z,1.20
2022-08-23T22:09:54.621Z,1.23
2022-08-23T22:12:25.566Z,1.33
2022-08-23T22:14:54.262Z,1.00
2022-08-23T22:17:22.878Z,1.20
2022-08-23T22:19:51.931Z,1.35
2022-08-23T22:22:20.919Z,1.30
2022-08-23T22:24:54.649Z,1.40
2022-08-23T22:27:26.643Z,1.23
2022-08-23T22:30:06.690Z,1.45
2022-08-23T22:32:35.978Z,1.60
2022-08-23T22:35:06.890Z,1.60
2022-08-23T22:38:03.567Z,1.95
2022-08-23T22:40:35.745Z,1.42
2022-08-23T22:43:05.363Z,1.50
2022-08-23T22:45:36.464Z,1.48
2022-08-23T22:48:05.352Z,1.70
2022-08-23T22:50:37.013Z,1.58
2022-08-23T22:53:06.093Z,1.73
2022-08-23T22:55:36.633Z,2.20
2022-08-23T22:58:05.028Z,1.42
2022-08-23T23:00:33.984Z,1.15
2022-08-23T23:03:03.722Z,1.10
2022-08-23T23:05:34.623Z,1.17
2022-08-23T23:08:22.246Z,1.00
2022-08-23T23:10:52.672Z,1.23
2022-08-23T23:13:23.320Z,1.20
2022-08-23T23:15:53.127Z,1.20
2022-08-23T23:18:23.348Z,1.50
2022-08-23T23:20:51.887Z,1.10
2022-08-23T23:23:32.444Z,1.17
2022-08-23T23:26:08.343Z,0.90
2022-08-23T23:28:37.931Z,1.30
2022-08-23T23:31:09.654Z,1.02
2022-08-23T23:33:45.703Z,1.05
2022-08-23T23:36:16.578Z,0.90
2022-08-23T23:38:46.184Z,1.15
2022-08-23T23:41:22.977Z,1.15
2022-08-23T23:43:54.116Z,1.20
2022-08-23T23:46:35.451Z,1.27
2022-08-23T23:49:04.078Z,1.20
2022-08-23T23:51:32.825Z,1.50
2022-08-23T23:54:01.796Z,1.25
2022-08-23T23:56:32.993Z,1.50
2022-08-23T23:59:07.999Z,1.27
